Time,TemperatureF,DewpointF,PressureIn,WindDirection,WindDirectionDegrees,WindSpeedMPH,WindSpeedGustMPH,Humidity,HourlyPrecipIn,Conditions,Clouds,dailyrainin,SoftwareType,DateUTC
2013-04-18 00:01:00,38.6,36.2,30.32,SE,144,0.0,0.0,91,0.00,,,0.00,Wunderground v.1.15,2013-04-18 04:01:00,
2013-04-18 00:03:00,38.6,36.2,30.32,SE,144,0.0,0.0,91,0.00,,,0.00,Wunderground v.1.15,2013-04-18 04:03:00,
2013-04-18 00:07:00,38.4,36.0,30.32,SE,144,0.0,0.0,91,0.00,,,0.00,Wunderground v.1.15,2013-04-18 04:07:00,
2013-04-18 00:09:00,38.4,36.0,30.32,SE,143,0.0,0.0,91,0.00,,,0.00,Wunderground v.1.15,2013-04-18 04:09:00,
2013-04-18 00:10:00,38.4,36.0,30.32,SE,144,0.0,0.0,91,0.00,,,0.00,Wunderground v.1.15,2013-04-18 04:10:00,
2013-04-18 00:15:00,38.1,35.7,30.32,SE,144,0.0,0.0,91,0.00,,,0.00,Wunderground v.1.15,2013-04-18 04:15:00,
2013-04-18 00:20:00,38.0,35.9,30.32,SE,144,0.0,0.0,92,0.00,,,0.00,Wunderground v.1.15,2013-04-18 04:20:00,
2013-04-18 00:26:00,37.9,35.8,30.33,SE,144,0.0,0.0,92,0.00,,,0.00,Wunderground v.1.15,2013-04-18 04:26:00,
2013-04-18 00:32:00,37.6,35.5,30.34,SE,144,0.0,0.0,92,0.00,,,0.00,Wunderground v.1.15,2013-04-18 04:32:00,
2013-04-18 00:37:00,37.5,35.4,30.34,SE,144,0.0,0.0,92,0.00,,,0.00,Wunderground v.1.15,2013-04-18 04:37:00,
2013-04-18 00:43:00,37.3,35.5,30.35,SE,143,0.0,0.0,93,0.00,,,0.00,Wunderground v.1.15,2013-04-18 04:43:00,
2013-04-18 00:48:00,37.1,35.3,30.35,SE,144,0.0,0.0,93,0.00,,,0.00,Wunderground v.1.15,2013-04-18 04:48:00,
2013-04-18 00:54:00,36.9,35.1,30.35,SE,144,0.0,0.0,93,0.00,,,0.00,Wunderground v.1.15,2013-04-18 04:54:00,
2013-04-18 00:59:00,37.0,35.2,30.35,SE,143,0.0,0.0,93,0.00,,,0.00,Wunderground v.1.15,2013-04-18 04:59:00,
2013-04-18 01:04:00,37.0,35.2,30.36,SE,143,0.0,0.0,93,0.00,,,0.00,Wunderground v.1.15,2013-04-18 05:04:00,
2013-04-18 01:09:00,36.8,35.0,30.36,SE,144,0.0,0.0,93,0.00,,,0.00,Wunderground v.1.15,2013-04-18 05:09:00,
2013-04-18 01:15:00,36.7,35.1,30.35,SE,144,0.0,0.0,94,0.00,,,0.00,Wunderground v.1.15,2013-04-18 05:15:00,
2013-04-18 01:20:00,36.5,34.9,30.36,SE,144,0.0,0.0,94,0.00,,,0.00,Wunderground v.1.15,2013-04-18 05:20:00,
2013-04-18 01:26:00,36.3,34.7,30.36,SE,144,0.0,0.0,94,0.00,,,0.00,Wunderground v.1.15,2013-04-18 05:26:00,
2013-04-18 01:31:00,36.1,34.5,30.36,SE,143,0.0,0.0,94,0.00,,,0.00,Wunderground v.1.15,2013-04-18 05:31:00,
2013-04-18 01:37:00,36.0,34.4,30.35,SE,144,0.0,0.0,94,0.00,,,0.00,Wunderground v.1.15,2013-04-18 05:37:00,
2013-04-18 01:42:00,35.9,34.3,30.35,SE,144,0.0,0.0,94,0.00,,,0.00,Wunderground v.1.15,2013-04-18 05:42:00,
2013-04-18 01:48:00,35.7,34.1,30.36,SE,143,0.0,0.0,94,0.00,,,0.00,Wunderground v.1.15,2013-04-18 05:48:00,
2013-04-18 01:54:00,35.7,34.1,30.35,SE,143,0.0,0.0,94,0.00,,,0.00,Wunderground v.1.15,2013-04-18 05:54:00,
2013-04-18 01:59:00,35.6,34.0,30.35,SE,144,0.0,0.0,94,0.00,,,0.00,Wunderground v.1.15,2013-04-18 05:59:00,
2013-04-18 02:05:00,35.3,33.7,30.35,SE,143,0.0,0.0,94,0.00,,,0.00,Wunderground v.1.15,2013-04-18 06:05:00,
2013-04-18 02:11:00,35.0,33.4,30.35,SE,144,0.0,0.0,94,0.00,,,0.00,Wunderground v.1.15,2013-04-18 06:11:00,
2013-04-18 02:17:00,34.9,33.3,30.35,SE,143,0.0,0.0,94,0.00,,,0.00,Wunderground v.1.15,2013-04-18 06:17:00,
2013-04-18 02:22:00,34.9,33.6,30.35,SE,144,0.0,0.0,95,0.00,,,0.00,Wunderground v.1.15,2013-04-18 06:22:00,
2013-04-18 02:27:00,34.9,33.6,30.35,SE,143,0.0,0.0,95,0.00,,,0.00,Wunderground v.1.15,2013-04-18 06:27:00,
2013-04-18 02:33:00,35.1,33.8,30.35,SE,143,0.0,0.0,95,0.00,,,0.00,Wunderground v.1.15,2013-04-18 06:33:00,
2013-04-18 02:38:00,35.1,33.8,30.35,SE,143,0.0,0.0,95,0.00,,,0.00,Wunderground v.1.15,2013-04-18 06:38:00,
2013-04-18 02:43:00,35.0,33.7,30.34,SE,143,0.0,0.0,95,0.00,,,0.00,Wunderground v.1.15,2013-04-18 06:43:00,
2013-04-18 02:49:00,34.9,33.6,30.34,SE,144,0.0,0.0,95,0.00,,,0.00,Wunderground v.1.15,2013-04-18 06:49:00,
2013-04-18 02:55:00,34.7,33.4,30.33,SE,144,0.0,0.0,95,0.00,,,0.00,Wunderground v.1.15,2013-04-18 06:55:00,
2013-04-18 03:01:00,34.5,33.2,30.34,SE,144,0.0,0.0,95,0.00,,,0.00,Wunderground v.1.15,2013-04-18 07:01:00,
2013-04-18 03:07:00,34.5,33.2,30.34,SE,143,0.0,0.0,95,0.00,,,0.00,Wunderground v.1.15,2013-04-18 07:07:00,
2013-04-18 03:12:00,34.4,33.1,30.34,SE,143,0.0,0.0,95,0.00,,,0.00,Wunderground v.1.15,2013-04-18 07:12:00,
2013-04-18 03:17:00,34.3,33.0,30.34,SE,143,0.0,0.0,95,0.00,,,0.00,Wunderground v.1.15,2013-04-18 07:17:00,
2013-04-18 03:23:00,34.2,32.9,30.35,SE,143,0.0,0.0,95,0.00,,,0.00,Wunderground v.1.15,2013-04-18 07:23:00,
2013-04-18 03:28:00,34.1,32.8,30.35,SE,144,0.0,0.0,95,0.00,,,0.00,Wunderground v.1.15,2013-04-18 07:28:00,
2013-04-18 03:33:00,33.9,32.6,30.35,SE,144,0.0,0.0,95,0.00,,,0.00,Wunderground v.1.15,2013-04-18 07:33:00,
2013-04-18 03:39:00,34.0,32.7,30.36,SE,144,0.0,0.0,95,0.00,,,0.00,Wunderground v.1.15,2013-04-18 07:39:00,
2013-04-18 03:44:00,34.0,32.7,30.36,SE,144,0.0,0.0,95,0.00,,,0.00,Wunderground v.1.15,2013-04-18 07:44:00,
2013-04-18 03:49:00,33.9,32.6,30.37,SE,144,0.0,0.0,95,0.00,,,0.00,Wunderground v.1.15,2013-04-18 07:49:00,
2013-04-18 03:54:00,33.8,32.5,30.37,SE,143,0.0,0.0,95,0.00,,,0.00,Wunderground v.1.15,2013-04-18 07:54:00,
2013-04-18 04:00:00,33.7,32.4,30.37,SE,144,0.0,0.0,95,0.00,,,0.00,Wunderground v.1.15,2013-04-18 08:00:00,
2013-04-18 04:05:00,33.5,32.2,30.37,SE,143,0.0,0.0,95,0.00,,,0.00,Wunderground v.1.15,2013-04-18 08:05:00,
2013-04-18 04:10:00,33.4,32.1,30.38,SE,143,0.0,0.0,95,0.00,,,0.00,Wunderground v.1.15,2013-04-18 08:10:00,
2013-04-18 04:16:00,33.2,31.9,30.38,SE,144,0.0,0.0,95,0.00,,,0.00,Wunderground v.1.15,2013-04-18 08:16:00,
2013-04-18 04:22:00,32.9,31.6,30.37,SE,144,0.0,0.0,95,0.00,,,0.00,Wunderground v.1.15,2013-04-18 08:22:00,
2013-04-18 04:27:00,32.8,31.5,30.37,SE,143,0.0,0.0,95,0.00,,,0.00,Wunderground v.1.15,2013-04-18 08:27:00,
2013-04-18 04:33:00,32.7,31.7,30.36,SE,143,0.0,0.0,96,0.00,,,0.00,Wunderground v.1.15,2013-04-18 08:33:00,
2013-04-18 04:38:00,32.5,31.5,30.36,SE,144,0.0,0.0,96,0.00,,,0.00,Wunderground v.1.15,2013-04-18 08:38:00,
2013-04-18 04:43:00,32.3,31.0,30.36,SE,144,0.0,0.0,95,0.00,,,0.00,Wunderground v.1.15,2013-04-18 08:43:00,
2013-04-18 04:48:00,32.1,31.1,30.36,SE,143,0.0,0.0,96,0.00,,,0.00,Wunderground v.1.15,2013-04-18 08:48:00,
2013-04-18 04:53:00,32.1,31.1,30.37,SE,144,0.0,0.0,96,0.00,,,0.00,Wunderground v.1.15,2013-04-18 08:53:00,
2013-04-18 04:58:00,32.0,31.0,30.37,SE,143,0.0,0.0,96,0.00,,,0.00,Wunderground v.1.15,2013-04-18 08:58:00,
2013-04-18 05:04:00,31.7,30.7,30.37,SE,144,0.0,0.0,96,0.00,,,0.00,Wunderground v.1.15,2013-04-18 09:04:00,
2013-04-18 05:09:00,31.6,30.6,30.37,SE,144,0.0,0.0,96,0.00,,,0.00,Wunderground v.1.15,2013-04-18 09:09:00,
2013-04-18 05:14:00,31.5,30.5,30.37,SE,144,0.0,0.0,96,0.00,,,0.00,Wunderground v.1.15,2013-04-18 09:14:00,
2013-04-18 05:19:00,31.6,30.6,30.37,SE,143,0.0,0.0,96,0.00,,,0.00,Wunderground v.1.15,2013-04-18 09:19:00,
2013-04-18 05:25:00,31.7,30.7,30.38,SE,143,0.0,0.0,96,0.00,,,0.00,Wunderground v.1.15,2013-04-18 09:25:00,
2013-04-18 05:30:00,31.8,30.8,30.38,SE,144,0.0,0.0,96,0.00,,,0.00,Wunderground v.1.15,2013-04-18 09:30:00,
2013-04-18 05:35:00,31.8,30.8,30.38,SE,143,0.0,0.0,96,0.00,,,0.00,Wunderground v.1.15,2013-04-18 09:35:00,
2013-04-18 05:41:00,31.6,30.6,30.38,SE,144,0.0,0.0,96,0.00,,,0.00,Wunderground v.1.15,2013-04-18 09:41:00,
2013-04-18 05:46:00,31.5,30.5,30.38,SE,143,0.0,0.0,96,0.00,,,0.00,Wunderground v.1.15,2013-04-18 09:46:00,
2013-04-18 05:51:00,31.5,30.5,30.39,SE,143,0.0,0.0,96,0.00,,,0.00,Wunderground v.1.15,2013-04-18 09:51:00,
2013-04-18 05:57:00,31.5,30.5,30.38,SE,143,0.0,0.0,96,0.00,,,0.00,Wunderground v.1.15,2013-04-18 09:57:00,
2013-04-18 06:02:00,31.6,30.6,30.38,SE,144,0.0,0.0,96,0.00,,,0.00,Wunderground v.1.15,2013-04-18 10:02:00,
2013-04-18 06:08:00,31.4,30.4,30.38,SE,143,0.0,0.0,96,0.00,,,0.00,Wunderground v.1.15,2013-04-18 10:08:00,
2013-04-18 06:14:00,31.3,30.3,30.38,SE,143,0.0,0.0,96,0.00,,,0.00,Wunderground v.1.15,2013-04-18 10:14:00,
2013-04-18 06:19:00,31.3,30.3,30.38,SE,143,0.0,0.0,96,0.00,,,0.00,Wunderground v.1.15,2013-04-18 10:19:00,
2013-04-18 06:24:00,31.3,30.3,30.38,SE,143,0.0,0.0,96,0.00,,,0.00,Wunderground v.1.15,2013-04-18 10:24:00,
2013-04-18 06:30:00,31.4,30.4,30.38,SE,144,0.0,0.0,96,0.00,,,0.00,Wunderground v.1.15,2013-04-18 10:30:00,
2013-04-18 06:36:00,31.3,30.3,30.38,SE,143,0.0,0.0,96,0.00,,,0.00,Wunderground v.1.15,2013-04-18 10:36:00,
2013-04-18 06:41:00,31.3,30.3,30.38,SE,143,0.0,0.0,96,0.00,,,0.00,Wunderground v.1.15,2013-04-18 10:41:00,
2013-04-18 06:47:00,31.4,30.4,30.38,SE,144,0.0,0.0,96,0.00,,,0.00,Wunderground v.1.15,2013-04-18 10:47:00,
2013-04-18 06:53:00,31.6,30.6,30.38,SE,143,0.0,0.0,96,0.00,,,0.00,Wunderground v.1.15,2013-04-18 10:53:00,
2013-04-18 06:59:00,32.2,31.2,30.38,SE,144,0.0,0.0,96,0.00,,,0.00,Wunderground v.1.15,2013-04-18 10:59:00,
2013-04-18 07:04:00,33.8,33.0,30.39,SE,144,0.0,0.0,97,0.00,,,0.00,Wunderground v.1.15,2013-04-18 11:04:00,
2013-04-18 07:09:00,35.0,34.2,30.39,SE,144,0.0,0.0,97,0.00,,,0.00,Wunderground v.1.15,2013-04-18 11:09:00,
2013-04-18 07:14:00,35.8,35.0,30.40,SE,144,0.0,0.0,97,0.00,,,0.00,Wunderground v.1.15,2013-04-18 11:14:00,
2013-04-18 07:20:00,37.1,36.1,30.39,SE,143,0.0,0.0,96,0.00,,,0.00,Wunderground v.1.15,2013-04-18 11:20:00,
2013-04-18 07:26:00,37.9,36.9,30.40,SE,142,0.0,0.0,96,0.00,,,0.00,Wunderground v.1.15,2013-04-18 11:26:00,
2013-04-18 07:32:00,39.5,38.5,30.40,SE,142,0.0,0.0,96,0.00,,,0.00,Wunderground v.1.15,2013-04-18 11:32:00,
2013-04-18 07:37:00,40.4,39.1,30.40,SE,142,0.0,0.0,95,0.00,,,0.00,Wunderground v.1.15,2013-04-18 11:37:00,
2013-04-18 07:43:00,41.4,39.8,30.40,SE,142,0.0,0.0,94,0.00,,,0.00,Wunderground v.1.15,2013-04-18 11:43:00,
2013-04-18 07:49:00,42.4,40.2,30.40,SE,142,0.0,0.0,92,0.00,,,0.00,Wunderground v.1.15,2013-04-18 11:49:00,
2013-04-18 07:54:00,43.8,41.3,30.40,SSE,160,0.0,0.0,91,0.00,,,0.00,Wunderground v.1.15,2013-04-18 11:54:00,
2013-04-18 07:59:00,44.5,41.2,30.40,WSW,239,0.0,0.0,88,0.00,,,0.00,Wunderground v.1.15,2013-04-18 11:59:00,
2013-04-18 08:05:00,44.9,41.3,30.40,SW,229,0.0,2.0,87,0.00,,,0.00,Wunderground v.1.15,2013-04-18 12:05:00,
2013-04-18 08:11:00,46.3,41.7,30.40,ESE,120,1.0,3.0,84,0.00,,,0.00,Wunderground v.1.15,2013-04-18 12:11:00,
2013-04-18 08:17:00,49.0,40.7,30.40,ENE,75,2.0,6.0,73,0.00,,,0.00,Wunderground v.1.15,2013-04-18 12:17:00,
2013-04-18 08:23:00,50.9,39.9,30.40,East,85,3.0,4.0,66,0.00,,,0.00,Wunderground v.1.15,2013-04-18 12:23:00,
2013-04-18 08:28:00,51.8,40.0,30.40,NE,56,3.0,7.0,64,0.00,,,0.00,Wunderground v.1.15,2013-04-18 12:28:00,
2013-04-18 08:34:00,52.2,37.9,30.40,East,88,4.0,6.0,58,0.00,,,0.00,Wunderground v.1.15,2013-04-18 12:34:00,
2013-04-18 08:39:00,52.7,37.9,30.40,North,11,4.0,8.0,57,0.00,,,0.00,Wunderground v.1.15,2013-04-18 12:39:00,
2013-04-18 08:44:00,53.3,39.3,30.40,ESE,115,4.0,4.0,59,0.00,,,0.00,Wunderground v.1.15,2013-04-18 12:44:00,
2013-04-18 08:50:00,53.7,39.3,30.40,SSW,210,3.0,3.0,58,0.00,,,0.00,Wunderground v.1.15,2013-04-18 12:50:00,
2013-04-18 08:56:00,54.0,38.6,30.40,ENE,61,3.0,7.0,56,0.00,,,0.00,Wunderground v.1.15,2013-04-18 12:56:00,
2013-04-18 09:02:00,53.9,39.0,30.39,ENE,71,4.0,6.0,57,0.00,,,0.00,Wunderground v.1.15,2013-04-18 13:02:00,
2013-04-18 09:07:00,54.1,38.7,30.40,ESE,111,4.0,7.0,56,0.00,,,0.00,Wunderground v.1.15,2013-04-18 13:07:00,
2013-04-18 09:12:00,54.5,38.7,30.40,ESE,108,4.0,6.0,55,0.00,,,0.00,Wunderground v.1.15,2013-04-18 13:12:00,
2013-04-18 09:18:00,55.0,38.6,30.40,SE,134,4.0,8.0,54,0.00,,,0.00,Wunderground v.1.15,2013-04-18 13:18:00,
2013-04-18 09:23:00,55.0,37.2,30.39,NE,49,4.0,9.0,51,0.00,,,0.00,Wunderground v.1.15,2013-04-18 13:23:00,
2013-04-18 09:28:00,55.2,38.8,30.40,SSE,159,3.0,9.0,54,0.00,,,0.00,Wunderground v.1.15,2013-04-18 13:28:00,
2013-04-18 09:34:00,55.7,37.8,30.39,SSE,160,4.0,6.0,51,0.00,,,0.00,Wunderground v.1.15,2013-04-18 13:34:00,
2013-04-18 09:39:00,56.1,38.2,30.39,ESE,105,4.0,6.0,51,0.00,,,0.00,Wunderground v.1.15,2013-04-18 13:39:00,
2013-04-18 09:44:00,56.0,37.6,30.39,East,85,4.0,7.0,50,0.00,,,0.00,Wunderground v.1.15,2013-04-18 13:44:00,
2013-04-18 09:49:00,56.3,36.8,30.39,ESE,104,4.0,7.0,48,0.00,,,0.00,Wunderground v.1.15,2013-04-18 13:49:00,
2013-04-18 09:55:00,56.6,37.1,30.39,SE,134,4.0,8.0,48,0.00,,,0.00,Wunderground v.1.15,2013-04-18 13:55:00,
2013-04-18 10:00:00,56.6,37.1,30.39,SE,141,4.0,4.0,48,0.00,,,0.00,Wunderground v.1.15,2013-04-18 14:00:00,
2013-04-18 10:05:00,56.9,36.9,30.38,SE,146,4.0,8.0,47,0.00,,,0.00,Wunderground v.1.15,2013-04-18 14:05:00,
2013-04-18 10:12:00,57.2,36.6,30.39,WNW,293,5.0,6.0,46,0.00,,,0.00,Wunderground v.1.15,2013-04-18 14:12:00,
2013-04-18 10:17:00,57.7,36.5,30.38,SSW,192,4.0,6.0,45,0.00,,,0.00,Wunderground v.1.15,2013-04-18 14:17:00,
2013-04-18 10:22:00,57.7,37.0,30.39,SSE,150,3.0,6.0,46,0.00,,,0.00,Wunderground v.1.15,2013-04-18 14:22:00,
2013-04-18 10:28:00,57.9,36.7,30.39,SSE,166,4.0,7.0,45,0.00,,,0.00,Wunderground v.1.15,2013-04-18 14:28:00,
2013-04-18 10:33:00,58.2,36.9,30.39,East,91,4.0,5.0,45,0.00,,,0.00,Wunderground v.1.15,2013-04-18 14:33:00,
2013-04-18 10:39:00,58.1,35.7,30.39,SE,146,4.0,10.0,43,0.00,,,0.00,Wunderground v.1.15,2013-04-18 14:39:00,
2013-04-18 10:44:00,58.2,35.8,30.39,West,281,4.0,6.0,43,0.00,,,0.00,Wunderground v.1.15,2013-04-18 14:44:00,
2013-04-18 10:50:00,58.3,35.3,30.39,SSE,163,4.0,4.0,42,0.00,,,0.00,Wunderground v.1.15,2013-04-18 14:50:00,
2013-04-18 10:55:00,58.4,36.0,30.39,ESE,107,5.0,10.0,43,0.00,,,0.00,Wunderground v.1.15,2013-04-18 14:55:00,
2013-04-18 11:01:00,58.9,35.8,30.39,WSW,256,4.0,4.0,42,0.00,,,0.00,Wunderground v.1.15,2013-04-18 15:01:00,
2013-04-18 11:06:00,58.9,36.4,30.39,South,169,4.0,9.0,43,0.00,,,0.00,Wunderground v.1.15,2013-04-18 15:06:00,
2013-04-18 11:12:00,58.8,37.5,30.39,South,181,5.0,10.0,45,0.00,,,0.00,Wunderground v.1.15,2013-04-18 15:12:00,
2013-04-18 11:18:00,58.9,36.4,30.38,SSW,194,5.0,10.0,43,0.00,,,0.00,Wunderground v.1.15,2013-04-18 15:18:00,
2013-04-18 11:23:00,59.0,37.7,30.38,SE,137,5.0,5.0,45,0.00,,,0.00,Wunderground v.1.15,2013-04-18 15:23:00,
2013-04-18 11:29:00,59.1,36.0,30.39,SE,124,5.0,10.0,42,0.00,,,0.00,Wunderground v.1.15,2013-04-18 15:29:00,
2013-04-18 11:35:00,59.5,37.6,30.38,SSW,205,5.0,6.0,44,0.00,,,0.00,Wunderground v.1.15,2013-04-18 15:35:00,
2013-04-18 11:40:00,59.9,38.5,30.38,SW,218,4.0,4.0,45,0.00,,,0.00,Wunderground v.1.15,2013-04-18 15:40:00,
2013-04-18 11:47:00,59.8,36.0,30.38,WSW,242,5.0,8.0,41,0.00,,,0.00,Wunderground v.1.15,2013-04-18 15:47:00,
2013-04-18 11:53:00,59.8,37.2,30.38,SE,132,5.0,10.0,43,0.00,,,0.00,Wunderground v.1.15,2013-04-18 15:53:00,
2013-04-18 11:58:00,59.9,39.6,30.37,SW,217,5.0,10.0,47,0.00,,,0.00,Wunderground v.1.15,2013-04-18 15:58:00,
2013-04-18 12:03:00,60.4,37.8,30.38,SSW,200,5.0,8.0,43,0.00,,,0.00,Wunderground v.1.15,2013-04-18 16:03:00,
2013-04-18 12:09:00,60.5,37.3,30.38,SSW,205,4.0,8.0,42,0.00,,,0.00,Wunderground v.1.15,2013-04-18 16:09:00,
2013-04-18 12:14:00,60.5,39.0,30.38,SSW,198,4.0,7.0,45,0.00,,,0.00,Wunderground v.1.15,2013-04-18 16:14:00,
2013-04-18 12:19:00,60.7,36.8,30.37,SE,132,4.0,8.0,41,0.00,,,0.00,Wunderground v.1.15,2013-04-18 16:19:00,
2013-04-18 12:25:00,60.8,39.3,30.37,SE,146,5.0,9.0,45,0.00,,,0.00,Wunderground v.1.15,2013-04-18 16:25:00,
2013-04-18 12:30:00,60.8,36.9,30.37,ESE,120,4.0,4.0,41,0.00,,,0.00,Wunderground v.1.15,2013-04-18 16:30:00,
2013-04-18 12:35:00,60.8,37.5,30.37,SE,145,3.0,7.0,42,0.00,,,0.00,Wunderground v.1.15,2013-04-18 16:35:00,
2013-04-18 12:40:00,61.2,39.1,30.36,SSE,160,3.0,7.0,44,0.00,,,0.00,Wunderground v.1.15,2013-04-18 16:40:00,
2013-04-18 12:46:00,61.1,37.2,30.36,SSE,150,5.0,7.0,41,0.00,,,0.00,Wunderground v.1.15,2013-04-18 16:46:00,
2013-04-18 12:51:00,61.1,39.6,30.36,South,175,4.0,5.0,45,0.00,,,0.00,Wunderground v.1.15,2013-04-18 16:51:00,
2013-04-18 12:56:00,60.6,38.6,30.35,South,170,5.0,9.0,44,0.00,,,0.00,Wunderground v.1.15,2013-04-18 16:56:00,
2013-04-18 13:01:00,61.1,36.6,30.35,SSE,162,5.0,8.0,40,0.00,,,0.00,Wunderground v.1.15,2013-04-18 17:01:00,
2013-04-18 13:07:00,61.1,36.6,30.35,SSW,207,5.0,8.0,40,0.00,,,0.00,Wunderground v.1.15,2013-04-18 17:07:00,
2013-04-18 13:12:00,61.6,36.4,30.35,ESE,105,4.0,9.0,39,0.00,,,0.00,Wunderground v.1.15,2013-04-18 17:12:00,
2013-04-18 13:18:00,61.3,38.0,30.35,SSW,195,4.0,9.0,42,0.00,,,0.00,Wunderground v.1.15,2013-04-18 17:18:00,
2013-04-18 13:24:00,61.2,36.0,30.35,SSE,167,5.0,7.0,39,0.00,,,0.00,Wunderground v.1.15,2013-04-18 17:24:00,
2013-04-18 13:29:00,60.7,36.8,30.35,SSW,201,5.0,10.0,41,0.00,,,0.00,Wunderground v.1.15,2013-04-18 17:29:00,
2013-04-18 13:34:00,60.4,37.8,30.35,SE,136,5.0,8.0,43,0.00,,,0.00,Wunderground v.1.15,2013-04-18 17:34:00,
2013-04-18 13:39:00,60.3,36.5,30.34,SW,215,5.0,10.0,41,0.00,,,0.00,Wunderground v.1.15,2013-04-18 17:39:00,
2013-04-18 13:44:00,59.8,35.4,30.34,SSW,211,5.0,7.0,40,0.00,,,0.00,Wunderground v.1.15,2013-04-18 17:44:00,
2013-04-18 13:50:00,59.7,36.6,30.34,SE,129,6.0,6.0,42,0.00,,,0.00,Wunderground v.1.15,2013-04-18 17:50:00,
2013-04-18 13:55:00,59.8,37.8,30.34,SSE,166,4.0,7.0,44,0.00,,,0.00,Wunderground v.1.15,2013-04-18 17:55:00,
2013-04-18 14:00:00,59.5,37.6,30.33,SSW,193,5.0,10.0,44,0.00,,,0.00,Wunderground v.1.15,2013-04-18 18:00:00,
2013-04-18 14:05:00,59.6,36.5,30.33,SSW,203,5.0,10.0,42,0.00,,,0.00,Wunderground v.1.15,2013-04-18 18:05:00,
2013-04-18 14:10:00,59.5,37.0,30.33,SSE,155,5.0,5.0,43,0.00,,,0.00,Wunderground v.1.15,2013-04-18 18:10:00,
2013-04-18 14:15:00,59.1,34.8,30.33,WSW,250,6.0,9.0,40,0.00,,,0.00,Wunderground v.1.15,2013-04-18 18:15:00,
2013-04-18 14:22:00,58.8,36.3,30.33,SE,124,5.0,9.0,43,0.00,,,0.00,Wunderground v.1.15,2013-04-18 18:22:00,
2013-04-18 14:27:00,58.8,36.3,30.33,SW,225,6.0,9.0,43,0.00,,,0.00,Wunderground v.1.15,2013-04-18 18:27:00,
2013-04-18 14:33:00,58.9,36.4,30.33,South,173,6.0,11.0,43,0.00,,,0.00,Wunderground v.1.15,2013-04-18 18:33:00,
2013-04-18 14:39:00,59.2,35.5,30.33,SSE,158,4.0,11.0,41,0.00,,,0.00,Wunderground v.1.15,2013-04-18 18:39:00,
2013-04-18 14:44:00,59.1,36.6,30.33,SSE,153,4.0,9.0,43,0.00,,,0.00,Wunderground v.1.15,2013-04-18 18:44:00,
2013-04-18 14:49:00,58.4,34.8,30.33,SW,216,5.0,9.0,41,0.00,,,0.00,Wunderground v.1.15,2013-04-18 18:49:00,
2013-04-18 14:54:00,58.6,37.9,30.33,SW,235,5.0,7.0,46,0.00,,,0.00,Wunderground v.1.15,2013-04-18 18:54:00,
2013-04-18 15:00:00,58.8,35.7,30.33,West,269,5.0,7.0,42,0.00,,,0.00,Wunderground v.1.15,2013-04-18 19:00:00,
2013-04-18 15:05:00,58.7,35.7,30.33,SW,228,6.0,7.0,42,0.00,,,0.00,Wunderground v.1.15,2013-04-18 19:05:00,
2013-04-18 15:11:00,58.3,32.8,30.33,SSW,200,6.0,8.0,38,0.00,,,0.00,Wunderground v.1.15,2013-04-18 19:11:00,
2013-04-18 15:16:00,57.9,33.1,30.33,South,174,6.0,9.0,39,0.00,,,0.00,Wunderground v.1.15,2013-04-18 19:16:00,
2013-04-18 15:22:00,57.4,33.9,30.33,SSW,193,6.0,8.0,41,0.00,,,0.00,Wunderground v.1.15,2013-04-18 19:22:00,
2013-04-18 15:27:00,57.7,32.2,30.33,SSE,158,6.0,8.0,38,0.00,,,0.00,Wunderground v.1.15,2013-04-18 19:27:00,
2013-04-18 15:33:00,57.7,32.9,30.33,South,184,6.0,10.0,39,0.00,,,0.00,Wunderground v.1.15,2013-04-18 19:33:00,
2013-04-18 15:39:00,57.8,34.2,30.33,South,181,6.0,12.0,41,0.00,,,0.00,Wunderground v.1.15,2013-04-18 19:39:00,
2013-04-18 15:45:00,57.8,32.3,30.32,SSW,194,6.0,12.0,38,0.00,,,0.00,Wunderground v.1.15,2013-04-18 19:45:00,
2013-04-18 15:50:00,57.6,32.8,30.32,SSW,194,6.0,6.0,39,0.00,,,0.00,Wunderground v.1.15,2013-04-18 19:50:00,
2013-04-18 15:55:00,58.1,33.2,30.31,SSE,159,6.0,12.0,39,0.00,,,0.00,Wunderground v.1.15,2013-04-18 19:55:00,
2013-04-18 16:00:00,58.2,34.6,30.31,SW,229,6.0,8.0,41,0.00,,,0.00,Wunderground v.1.15,2013-04-18 20:00:00,
2013-04-18 16:06:00,57.9,35.5,30.31,SSW,205,6.0,8.0,43,0.00,,,0.00,Wunderground v.1.15,2013-04-18 20:06:00,
2013-04-18 16:12:00,57.8,36.6,30.31,SSE,165,7.0,9.0,45,0.00,,,0.00,Wunderground v.1.15,2013-04-18 20:12:00,
2013-04-18 16:17:00,58.0,37.9,30.30,SW,226,7.0,12.0,47,0.00,,,0.00,Wunderground v.1.15,2013-04-18 20:17:00,
2013-04-18 16:22:00,58.0,37.9,30.30,SSW,198,7.0,12.0,47,0.00,,,0.00,Wunderground v.1.15,2013-04-18 20:22:00,
2013-04-18 16:27:00,57.9,38.3,30.30,SSW,203,6.0,12.0,48,0.00,,,0.00,Wunderground v.1.15,2013-04-18 20:27:00,
2013-04-18 16:33:00,57.8,38.8,30.30,ESE,118,6.0,9.0,49,0.00,,,0.00,Wunderground v.1.15,2013-04-18 20:33:00,
2013-04-18 16:39:00,57.7,38.7,30.29,SW,221,6.0,12.0,49,0.00,,,0.00,Wunderground v.1.15,2013-04-18 20:39:00,
2013-04-18 16:44:00,57.5,39.0,30.29,WSW,250,7.0,7.0,50,0.00,,,0.00,Wunderground v.1.15,2013-04-18 20:44:00,
2013-04-18 16:50:00,57.5,40.0,30.29,WSW,245,6.0,6.0,52,0.00,,,0.00,Wunderground v.1.15,2013-04-18 20:50:00,
2013-04-18 16:55:00,56.9,39.9,30.29,WSW,250,6.0,14.0,53,0.00,,,0.00,Wunderground v.1.15,2013-04-18 20:55:00,
2013-04-18 17:00:00,56.3,40.8,30.29,SSW,200,6.0,7.0,56,0.00,,,0.00,Wunderground v.1.15,2013-04-18 21:00:00,
2013-04-18 17:05:00,55.8,40.8,30.28,SW,225,5.0,9.0,57,0.00,,,0.00,Wunderground v.1.15,2013-04-18 21:05:00,
2013-04-18 17:11:00,55.4,41.7,30.28,South,170,5.0,7.0,60,0.00,,,0.00,Wunderground v.1.15,2013-04-18 21:11:00,
2013-04-18 17:17:00,55.1,41.9,30.28,South,181,5.0,7.0,61,0.00,,,0.00,Wunderground v.1.15,2013-04-18 21:17:00,
2013-04-18 17:23:00,54.7,42.3,30.28,SW,226,4.0,7.0,63,0.00,,,0.00,Wunderground v.1.15,2013-04-18 21:23:00,
2013-04-18 17:28:00,54.4,42.9,30.28,SSE,162,4.0,9.0,65,0.00,,,0.00,Wunderground v.1.15,2013-04-18 21:28:00,
2013-04-18 17:33:00,54.2,43.1,30.28,SW,222,4.0,7.0,66,0.00,,,0.00,Wunderground v.1.15,2013-04-18 21:33:00,
2013-04-18 17:38:00,54.0,43.3,30.28,SSW,212,4.0,7.0,67,0.00,,,0.00,Wunderground v.1.15,2013-04-18 21:38:00,
2013-04-18 17:44:00,53.9,43.6,30.27,SSW,194,4.0,7.0,68,0.00,,,0.00,Wunderground v.1.15,2013-04-18 21:44:00,
2013-04-18 17:49:00,53.8,43.9,30.27,SSW,208,4.0,7.0,69,0.00,,,0.00,Wunderground v.1.15,2013-04-18 21:49:00,
2013-04-18 17:54:00,53.7,43.8,30.27,SSW,194,4.0,10.0,69,0.00,,,0.00,Wunderground v.1.15,2013-04-18 21:54:00,
2013-04-18 18:00:00,53.5,44.0,30.27,South,184,5.0,7.0,70,0.00,,,0.00,Wunderground v.1.15,2013-04-18 22:00:00,
2013-04-18 18:05:00,53.3,44.1,30.27,SSE,153,5.0,7.0,71,0.00,,,0.00,Wunderground v.1.15,2013-04-18 22:05:00,
2013-04-18 18:10:00,53.2,44.0,30.28,SSW,200,4.0,4.0,71,0.00,,,0.00,Wunderground v.1.15,2013-04-18 22:10:00,
2013-04-18 18:16:00,53.1,43.9,30.27,SW,236,3.0,7.0,71,0.00,,,0.00,Wunderground v.1.15,2013-04-18 22:16:00,
2013-04-18 18:21:00,52.9,44.1,30.27,South,180,4.0,10.0,72,0.00,,,0.00,Wunderground v.1.15,2013-04-18 22:21:00,
2013-04-18 18:27:00,52.7,44.3,30.27,SE,136,5.0,10.0,73,0.00,,,0.00,Wunderground v.1.15,2013-04-18 22:27:00,
2013-04-18 18:33:00,52.6,44.2,30.27,SE,142,4.0,7.0,73,0.00,,,0.00,Wunderground v.1.15,2013-04-18 22:33:00,
2013-04-18 18:38:00,52.5,44.1,30.26,WSW,238,4.0,9.0,73,0.00,,,0.00,Wunderground v.1.15,2013-04-18 22:38:00,
2013-04-18 18:43:00,52.4,44.4,30.26,SW,221,4.0,7.0,74,0.00,,,0.00,Wunderground v.1.15,2013-04-18 22:43:00,
2013-04-18 18:48:00,52.3,44.3,30.26,SSW,210,3.0,7.0,74,0.00,,,0.00,Wunderground v.1.15,2013-04-18 22:48:00,
2013-04-18 18:54:00,52.3,44.3,30.26,SSE,156,3.0,7.0,74,0.00,,,0.00,Wunderground v.1.15,2013-04-18 22:54:00,
2013-04-18 18:59:00,52.1,44.4,30.25,SSW,208,4.0,7.0,75,0.00,,,0.00,Wunderground v.1.15,2013-04-18 22:59:00,
2013-04-18 19:05:00,52.1,44.4,30.25,SSW,211,3.0,7.0,75,0.00,,,0.00,Wunderground v.1.15,2013-04-18 23:05:00,
2013-04-18 19:10:00,52.0,44.3,30.25,SSW,203,3.0,7.0,75,0.00,,,0.00,Wunderground v.1.15,2013-04-18 23:10:00,
2013-04-18 19:15:00,52.0,44.3,30.25,ESE,120,3.0,7.0,75,0.00,,,0.00,Wunderground v.1.15,2013-04-18 23:15:00,
2013-04-18 19:21:00,51.9,44.2,30.25,South,179,3.0,7.0,75,0.00,,,0.00,Wunderground v.1.15,2013-04-18 23:21:00,
2013-04-18 19:26:00,51.8,44.5,30.25,South,186,2.0,7.0,76,0.00,,,0.00,Wunderground v.1.15,2013-04-18 23:26:00,
2013-04-18 19:32:00,51.7,44.4,30.25,WSW,245,1.0,7.0,76,0.00,,,0.00,Wunderground v.1.15,2013-04-18 23:32:00,
2013-04-18 19:37:00,51.7,44.4,30.25,South,191,1.0,7.0,76,0.00,,,0.00,Wunderground v.1.15,2013-04-18 23:37:00,
2013-04-18 19:43:00,51.6,44.3,30.25,SW,226,2.0,7.0,76,0.00,,,0.00,Wunderground v.1.15,2013-04-18 23:43:00,
2013-04-18 19:49:00,51.6,44.3,30.25,South,189,3.0,7.0,76,0.00,,,0.00,Wunderground v.1.15,2013-04-18 23:49:00,
2013-04-18 19:54:00,51.6,44.3,30.25,SE,142,3.0,7.0,76,0.00,,,0.00,Wunderground v.1.15,2013-04-18 23:54:00,
2013-04-18 20:00:00,51.6,44.6,30.25,SW,232,3.0,7.0,77,0.00,,,0.00,Wunderground v.1.15,2013-04-19 00:00:00,
2013-04-18 20:05:00,51.6,44.6,30.25,South,188,3.0,7.0,77,0.00,,,0.00,Wunderground v.1.15,2013-04-19 00:05:00,
2013-04-18 20:11:00,51.5,44.5,30.25,SE,131,2.0,5.0,77,0.00,,,0.00,Wunderground v.1.15,2013-04-19 00:11:00,
2013-04-18 20:17:00,51.5,44.5,30.25,SSW,212,3.0,7.0,77,0.00,,,0.00,Wunderground v.1.15,2013-04-19 00:17:00,
2013-04-18 20:22:00,51.4,44.4,30.25,West,278,3.0,7.0,77,0.00,,,0.00,Wunderground v.1.15,2013-04-19 00:22:00,
2013-04-18 20:28:00,51.3,44.3,30.25,West,260,3.0,7.0,77,0.00,,,0.00,Wunderground v.1.15,2013-04-19 00:28:00,
2013-04-18 20:34:00,51.3,44.7,30.25,SW,221,2.0,7.0,78,0.00,,,0.00,Wunderground v.1.15,2013-04-19 00:34:00,
2013-04-18 20:39:00,51.3,44.7,30.25,SSW,211,2.0,7.0,78,0.00,,,0.00,Wunderground v.1.15,2013-04-19 00:39:00,
2013-04-18 20:45:00,51.2,44.6,30.25,SSW,210,3.0,7.0,78,0.00,,,0.00,Wunderground v.1.15,2013-04-19 00:45:00,
2013-04-18 20:51:00,51.2,44.6,30.24,South,191,2.0,7.0,78,0.00,,,0.00,Wunderground v.1.15,2013-04-19 00:51:00,
2013-04-18 20:56:00,51.2,44.9,30.24,SSW,194,2.0,7.0,79,0.00,,,0.00,Wunderground v.1.15,2013-04-19 00:56:00,
2013-04-18 21:01:00,51.2,44.9,30.24,SSW,195,2.0,7.0,79,0.00,,,0.00,Wunderground v.1.15,2013-04-19 01:01:00,
2013-04-18 21:07:00,51.2,44.9,30.23,SW,221,2.0,7.0,79,0.00,,,0.00,Wunderground v.1.15,2013-04-19 01:07:00,
2013-04-18 21:12:00,51.2,44.9,30.23,WSW,239,3.0,7.0,79,0.00,,,0.00,Wunderground v.1.15,2013-04-19 01:12:00,
2013-04-18 21:17:00,51.2,44.9,30.23,South,186,2.0,7.0,79,0.00,,,0.00,Wunderground v.1.15,2013-04-19 01:17:00,
2013-04-18 21:22:00,51.3,45.0,30.23,SSW,197,2.0,7.0,79,0.00,,,0.00,Wunderground v.1.15,2013-04-19 01:22:00,
2013-04-18 21:27:00,51.3,45.3,30.22,SSE,166,2.0,7.0,80,0.00,,,0.00,Wunderground v.1.15,2013-04-19 01:27:00,
2013-04-18 21:33:00,51.3,45.3,30.22,SE,128,2.0,7.0,80,0.00,,,0.00,Wunderground v.1.15,2013-04-19 01:33:00,
2013-04-18 21:38:00,51.3,45.3,30.22,West,280,3.0,7.0,80,0.00,,,0.00,Wunderground v.1.15,2013-04-19 01:38:00,
2013-04-18 21:44:00,51.3,45.7,30.22,WSW,253,4.0,8.0,81,0.00,,,0.00,Wunderground v.1.15,2013-04-19 01:44:00,
2013-04-18 21:50:00,51.2,45.6,30.22,SSW,197,4.0,4.0,81,0.00,,,0.00,Wunderground v.1.15,2013-04-19 01:50:00,
2013-04-18 21:55:00,51.2,45.6,30.21,SSW,207,3.0,7.0,81,0.00,,,0.00,Wunderground v.1.15,2013-04-19 01:55:00,
2013-04-18 22:01:00,51.2,45.9,30.21,SSW,194,3.0,7.0,82,0.00,,,0.00,Wunderground v.1.15,2013-04-19 02:01:00,
2013-04-18 22:07:00,51.2,45.9,30.21,SSW,208,3.0,7.0,82,0.00,,,0.00,Wunderground v.1.15,2013-04-19 02:07:00,
2013-04-18 22:12:00,51.2,46.2,30.21,SSE,148,4.0,7.0,83,0.00,,,0.00,Wunderground v.1.15,2013-04-19 02:12:00,
2013-04-18 22:17:00,51.2,46.2,30.21,SSE,153,3.0,7.0,83,0.00,,,0.00,Wunderground v.1.15,2013-04-19 02:17:00,
2013-04-18 22:23:00,51.2,46.2,30.20,WSW,238,3.0,7.0,83,0.00,,,0.00,Wunderground v.1.15,2013-04-19 02:23:00,
2013-04-18 22:28:00,51.2,46.5,30.20,South,191,4.0,7.0,84,0.00,,,0.00,Wunderground v.1.15,2013-04-19 02:28:00,
2013-04-18 22:34:00,51.2,46.5,30.20,SW,233,3.0,7.0,84,0.00,,,0.00,Wunderground v.1.15,2013-04-19 02:34:00,
2013-04-18 22:39:00,51.2,46.8,30.19,SW,229,2.0,7.0,85,0.00,,,0.00,Wunderground v.1.15,2013-04-19 02:39:00,
2013-04-18 22:45:00,51.3,46.9,30.19,West,269,2.0,7.0,85,0.00,,,0.00,Wunderground v.1.15,2013-04-19 02:45:00,
2013-04-18 22:51:00,51.2,46.8,30.19,South,184,2.0,7.0,85,0.00,,,0.00,Wunderground v.1.15,2013-04-19 02:51:00,
2013-04-18 22:57:00,51.2,47.2,30.19,SSW,208,2.0,7.0,86,0.00,,,0.00,Wunderground v.1.15,2013-04-19 02:57:00,
2013-04-18 23:02:00,51.2,47.2,30.18,ESE,107,1.0,7.0,86,0.00,,,0.00,Wunderground v.1.15,2013-04-19 03:02:00,
2013-04-18 23:08:00,51.3,47.3,30.18,SSW,210,1.0,7.0,86,0.00,,,0.00,Wunderground v.1.15,2013-04-19 03:08:00,
2013-04-18 23:13:00,51.3,47.6,30.18,WSW,239,1.0,2.0,87,0.00,,,0.00,Wunderground v.1.15,2013-04-19 03:13:00,
2013-04-18 23:19:00,51.3,47.6,30.18,South,169,1.0,2.0,87,0.00,,,0.00,Wunderground v.1.15,2013-04-19 03:19:00,
2013-04-18 23:24:00,51.3,47.6,30.17,SSW,197,1.0,2.0,87,0.00,,,0.00,Wunderground v.1.15,2013-04-19 03:24:00,
2013-04-18 23:29:00,51.3,47.6,30.17,SW,226,1.0,2.0,87,0.00,,,0.00,Wunderground v.1.15,2013-04-19 03:29:00,
2013-04-18 23:34:00,51.4,48.0,30.17,SSW,212,1.0,2.0,88,0.00,,,0.00,Wunderground v.1.15,2013-04-19 03:34:00,
2013-04-18 23:40:00,51.4,48.0,30.16,SSW,195,1.0,1.0,88,0.00,,,0.00,Wunderground v.1.15,2013-04-19 03:40:00,
2013-04-18 23:46:00,51.5,48.4,30.16,SW,225,1.0,2.0,89,0.00,,,0.00,Wunderground v.1.15,2013-04-19 03:46:00,
2013-04-18 23:51:00,51.6,48.5,30.16,SSE,156,1.0,1.0,89,0.00,,,0.00,Wunderground v.1.15,2013-04-19 03:51:00,
2013-04-18 23:57:00,51.7,48.9,30.16,SSE,148,0.0,1.0,90,0.00,,,0.00,Wunderground v.1.15,2013-04-19 03:57:00,